Time;durP1;ratioP1;P1;durP2;ratioP2;P2;SDS_P1;SDS_P2;PMS_P1;PMS_P2;Temp;Humidity;BMP_temperature;BMP_pressure;BME280_temperature;BME280_humidity;BME280_pressure;Samples;Min_cycle;Max_cycle;Signal;HPM_P1;HPM_P2
2023/07/14 00:01:42;;;;;;;1.77;1.17;;;;;22.30;101613.00;;;;5073417;28;20202;-79
2023/07/14 00:04:12;;;;;;;2.15;1.63;;;;;22.20;101618.00;;;;5085473;28;20190;-78
2023/07/14 00:06:40;;;;;;;3.10;1.40;;;;;22.20;101620.00;;;;5087328;28;20202;-78
2023/07/14 00:09:19;;;;;;;2.17;1.30;;;;;22.10;101609.00;;;;5097513;28;20669;-78
2023/07/14 00:11:47;;;;;;;2.28;1.55;;;;;22.20;101614.00;;;;5108956;28;20193;-78
2023/07/14 00:14:14;;;;;;;2.20;1.20;;;;;22.20;101605.00;;;;5108581;28;20243;-78
2023/07/14 00:16:42;;;;;;;2.10;1.58;;;;;22.20;101602.00;;;;5103584;28;20757;-78
2023/07/14 00:19:12;;;;;;;2.13;1.30;;;;;22.20;101608.00;;;;5085475;28;20221;-78
2023/07/14 00:21:40;;;;;;;1.90;1.40;;;;;22.20;101603.00;;;;5087884;28;20683;-78
2023/07/14 00:24:12;;;;;;;2.38;1.35;;;;;22.10;101613.00;;;;5088496;28;20198;-78
2023/07/14 00:26:41;;;;;;;2.42;1.35;;;;;22.20;101592.00;;;;5088945;28;20248;-78
2023/07/14 00:29:31;;;;;;;2.15;1.48;;;;;22.10;101597.00;;;;5087329;28;20198;-78
2023/07/14 00:31:59;;;;;;;2.83;1.50;;;;;22.20;101595.00;;;;5086105;28;20220;-78
2023/07/14 00:34:27;;;;;;;2.70;1.50;;;;;22.20;101586.00;;;;5067726;28;20230;-78
2023/07/14 00:36:54;;;;;;;2.28;1.42;;;;;22.20;101591.00;;;;5083445;28;20226;-78
2023/07/14 00:39:23;;;;;;;2.80;1.30;;;;;22.20;101591.00;;;;5087203;28;20206;-78
2023/07/14 00:41:50;;;;;;;1.75;1.35;;;;;22.20;101589.00;;;;5086296;28;20202;-78
2023/07/14 00:44:18;;;;;;;2.45;1.42;;;;;22.20;101583.00;;;;5087198;28;20205;-78
2023/07/14 00:46:46;;;;;;;4.55;1.92;;;;;22.20;101584.00;;;;5084555;28;20254;-78
2023/07/14 00:49:20;;;;;;;2.63;1.20;;;;;22.20;101585.00;;;;5078119;28;20194;-78
2023/07/14 00:51:48;;;;;;;1.63;1.25;;;;;22.20;101583.00;;;;5076101;28;20206;-78
2023/07/14 00:54:29;;;;;;;2.47;1.70;;;;;22.10;101574.00;;;;5085877;28;20198;-79
2023/07/14 00:56:58;;;;;;;1.90;1.23;;;;;22.30;101579.00;;;;5086810;28;20229;-79
2023/07/14 00:59:33;;;;;;;2.90;1.70;;;;;22.20;101577.00;;;;5091303;28;20193;-78
2023/07/14 01:02:22;;;;;;;1.92;1.65;;;;;22.20;101570.00;;;;5092819;28;20225;-78
2023/07/14 01:04:53;;;;;;;1.73;1.17;;;;;22.30;101581.00;;;;5084262;28;20190;-78
2023/07/14 01:07:27;;;;;;;2.13;1.40;;;;;22.30;101576.00;;;;5083434;28;20194;-78
2023/07/14 01:09:58;;;;;;;1.67;1.42;;;;;22.30;101566.00;;;;5081429;28;20265;-78
2023/07/14 01:12:28;;;;;;;2.15;1.15;;;;;22.30;101564.00;;;;5089145;28;20668;-79
2023/07/14 01:14:58;;;;;;;1.67;1.20;;;;;22.40;101560.00;;;;5091463;28;20277;-79
2023/07/14 01:17:26;;;;;;;1.98;1.60;;;;;22.40;101560.00;;;;5089949;28;20202;-78
2023/07/14 01:19:58;;;;;;;2.08;1.30;;;;;22.40;101558.00;;;;5086320;28;20630;-79
2023/07/14 01:22:34;;;;;;;1.50;1.27;;;;;22.40;101559.00;;;;5083156;28;20206;-78
2023/07/14 01:25:13;;;;;;;2.22;1.20;;;;;22.40;101549.00;;;;5089441;28;20194;-78
2023/07/14 01:27:42;;;;;;;3.53;1.48;;;;;22.40;101558.00;;;;5078458;28;20206;-78
2023/07/14 01:30:10;;;;;;;1.98;1.50;;;;;22.40;101556.00;;;;5079232;28;20210;-80
2023/07/14 01:32:42;;;;;;;2.45;1.52;;;;;22.40;101557.00;;;;5080056;28;20922;-80
2023/07/14 01:35:10;;;;;;;3.78;1.60;;;;;22.50;101561.00;;;;5088340;28;20225;-80
2023/07/14 01:37:39;;;;;;;4.53;1.60;;;;;22.50;101561.00;;;;5090618;28;20198;-79
2023/07/14 01:40:11;;;;;;;3.03;1.55;;;;;22.50;101549.00;;;;5091166;28;20194;-79
2023/07/14 01:42:40;;;;;;;4.45;1.70;;;;;22.50;101550.00;;;;5091272;28;20193;-80
2023/07/14 01:45:15;;;;;;;3.00;1.63;;;;;22.50;101548.00;;;;5088314;28;20668;-80
2023/07/14 01:47:44;;;;;;;3.88;1.80;;;;;22.60;101552.00;;;;5090704;28;20678;-79
2023/07/14 01:50:18;;;;;;;2.45;1.67;;;;;22.50;101552.00;;;;5083556;28;20203;-79
2023/07/14 01:52:48;;;;;;;1.80;1.63;;;;;22.50;101556.00;;;;5083919;28;20201;-79
2023/07/14 01:55:18;;;;;;;2.67;1.60;;;;;22.60;101551.00;;;;5071277;28;20210;-79
2023/07/14 01:57:49;;;;;;;1.73;1.30;;;;;22.60;101549.00;;;;5089428;28;20198;-79
2023/07/14 02:00:18;;;;;;;2.05;1.63;;;;;22.60;101549.00;;;;5087574;28;20194;-79
2023/07/14 02:02:49;;;;;;;1.88;1.45;;;;;22.60;101552.00;;;;5087289;28;20198;-79
2023/07/14 02:05:24;;;;;;;2.22;1.95;;;;;22.50;101549.00;;;;5086476;28;20198;-79
2023/07/14 02:07:59;;;;;;;3.50;1.65;;;;;22.60;101546.00;;;;5091724;28;20192;-79
2023/07/14 02:10:27;;;;;;;3.13;1.90;;;;;22.60;101541.00;;;;5106238;28;20201;-79
2023/07/14 02:12:56;;;;;;;3.85;2.30;;;;;22.60;101550.00;;;;5090255;28;20561;-80
2023/07/14 02:15:27;;;;;;;2.70;1.55;;;;;22.60;101542.00;;;;5089805;28;20255;-80
2023/07/14 02:17:55;;;;;;;2.97;2.00;;;;;22.60;101541.00;;;;5089189;28;20922;-80
2023/07/14 02:20:25;;;;;;;1.85;1.63;;;;;22.50;101544.00;;;;5087035;28;20214;-80
2023/07/14 02:22:54;;;;;;;2.17;1.80;;;;;22.60;101533.00;;;;5090123;28;20292;-79
2023/07/14 02:25:26;;;;;;;2.45;1.60;;;;;22.50;101536.00;;;;5100489;28;20190;-79
2023/07/14 02:27:53;;;;;;;2.63;1.77;;;;;22.50;101530.00;;;;5088194;28;20259;-80
2023/07/14 02:30:22;;;;;;;2.38;1.70;;;;;22.50;101537.00;;;;5089554;28;20198;-79
2023/07/14 02:32:54;;;;;;;2.38;1.70;;;;;22.50;101540.00;;;;5090106;28;20191;-79
2023/07/14 02:35:30;;;;;;;4.25;1.98;;;;;22.50;101533.00;;;;5087553;28;20224;-80
2023/07/14 02:38:04;;;;;;;1.85;1.30;;;;;22.50;101530.00;;;;5089453;28;20197;-79
2023/07/14 02:40:35;;;;;;;2.42;1.65;;;;;22.50;101529.00;;;;5088029;28;20648;-79
2023/07/14 02:43:06;;;;;;;1.77;1.65;;;;;22.40;101524.00;;;;5107154;28;20219;-79
2023/07/14 02:45:35;;;;;;;2.85;2.03;;;;;22.40;101528.00;;;;5088784;28;20210;-80
2023/07/14 02:48:07;;;;;;;2.90;1.95;;;;;22.40;101521.00;;;;5085324;28;20648;-80
2023/07/14 02:50:34;;;;;;;2.28;1.63;;;;;22.40;101524.00;;;;5083939;28;20206;-79
2023/07/14 02:53:01;;;;;;;2.30;1.83;;;;;22.40;101520.00;;;;5075676;28;20210;-80
2023/07/14 02:55:29;;;;;;;2.08;1.77;;;;;22.30;101517.00;;;;5085690;28;20190;-80
2023/07/14 02:57:56;;;;;;;3.47;1.95;;;;;22.30;101529.00;;;;5089818;28;20209;-80
2023/07/14 03:00:23;;;;;;;2.80;2.20;;;;;22.30;101515.00;;;;5092192;28;20198;-80
2023/07/14 03:02:51;;;;;;;3.05;1.75;;;;;22.30;101517.00;;;;5073275;28;20195;-80
2023/07/14 03:05:19;;;;;;;7.40;2.00;;;;;22.20;101514.00;;;;5071383;28;20580;-80
2023/07/14 03:07:47;;;;;;;3.10;1.90;;;;;22.20;101520.00;;;;5089219;28;20190;-80
2023/07/14 03:10:14;;;;;;;3.08;1.63;;;;;22.20;101524.00;;;;5071603;28;20606;-80
2023/07/14 03:12:42;;;;;;;3.67;2.00;;;;;22.20;101518.00;;;;5068838;28;20219;-80
2023/07/14 03:15:09;;;;;;;2.53;1.63;;;;;22.20;101522.00;;;;5071681;28;20198;-80
2023/07/14 03:17:37;;;;;;;3.10;2.20;;;;;22.10;101519.00;;;;5084528;28;20226;-80
2023/07/14 03:20:09;;;;;;;2.83;2.00;;;;;22.10;101523.00;;;;5068570;28;20219;-79
2023/07/14 03:22:38;;;;;;;3.60;2.13;;;;;22.10;101521.00;;;;5088075;28;20263;-80
2023/07/14 03:25:07;;;;;;;2.10;1.90;;;;;22.10;101526.00;;;;5088927;28;20202;-80
2023/07/14 03:27:34;;;;;;;2.67;2.05;;;;;22.10;101521.00;;;;5088662;28;20212;-80
2023/07/14 03:30:01;;;;;;;11.00;3.40;;;;;22.00;101517.00;;;;5087357;28;20196;-80
2023/07/14 03:32:29;;;;;;;2.88;2.33;;;;;22.00;101514.00;;;;5091968;28;20883;-79
2023/07/14 03:34:56;;;;;;;3.08;2.13;;;;;22.00;101511.00;;;;5108750;28;20229;-80
2023/07/14 03:37:23;;;;;;;2.78;2.53;;;;;22.00;101510.00;;;;5108855;28;20225;-80
2023/07/14 03:39:52;;;;;;;4.00;2.42;;;;;21.90;101511.00;;;;5090452;28;20206;-80
2023/07/14 03:42:19;;;;;;;4.40;1.83;;;;;21.90;101513.00;;;;5086795;28;20202;-80
2023/07/14 03:44:47;;;;;;;2.88;2.55;;;;;21.90;101507.00;;;;5068058;28;20556;-80
2023/07/14 03:47:14;;;;;;;3.13;2.60;;;;;21.90;101504.00;;;;5084771;28;20230;-79
2023/07/14 03:49:41;;;;;;;5.45;2.90;;;;;21.90;101496.00;;;;5087990;28;20192;-80
2023/07/14 03:52:09;;;;;;;3.60;2.55;;;;;21.90;101500.00;;;;5088478;28;20205;-80
2023/07/14 03:54:36;;;;;;;2.78;2.38;;;;;21.80;101497.00;;;;5088525;28;21001;-80
2023/07/14 03:57:06;;;;;;;4.68;3.00;;;;;21.80;101497.00;;;;5088322;28;20226;-80
2023/07/14 03:59:34;;;;;;;3.17;2.58;;;;;21.80;101499.00;;;;5085901;28;20247;-79
2023/07/14 04:02:02;;;;;;;3.40;2.20;;;;;21.80;101502.00;;;;5087137;28;20687;-80
2023/07/14 04:04:30;;;;;;;3.17;2.45;;;;;21.80;101502.00;;;;5083688;28;20199;-79
2023/07/14 04:06:58;;;;;;;4.10;2.15;;;;;21.80;101496.00;;;;5091853;28;20201;-80
2023/07/14 04:09:26;;;;;;;2.65;2.30;;;;;21.80;101498.00;;;;5078144;27;20214;-80
2023/07/14 04:11:53;;;;;;;3.67;2.10;;;;;21.80;101494.00;;;;5067781;28;20210;-79
2023/07/14 04:14:22;;;;;;;3.22;2.22;;;;;21.70;101497.00;;;;5067888;28;20187;-80
2023/07/14 04:16:49;;;;;;;3.63;2.65;;;;;21.80;101494.00;;;;5073757;28;20723;-80
2023/07/14 04:19:17;;;;;;;2.55;2.15;;;;;21.70;101494.00;;;;5083066;28;20218;-79
2023/07/14 04:21:44;;;;;;;3.63;2.55;;;;;21.70;101489.00;;;;5076046;28;20187;-79
2023/07/14 04:24:11;;;;;;;2.78;2.42;;;;;21.70;101496.00;;;;5075703;28;20228;-80
2023/07/14 04:26:38;;;;;;;2.42;2.05;;;;;21.70;101495.00;;;;5080976;28;20698;-79
2023/07/14 04:29:11;;;;;;;3.08;2.45;;;;;21.70;101493.00;;;;5086099;28;20191;-80
2023/07/14 04:31:40;;;;;;;3.00;2.33;;;;;21.70;101496.00;;;;5088313;28;20271;-80
2023/07/14 04:34:07;;;;;;;2.83;2.38;;;;;21.70;101503.00;;;;5083652;28;20233;-80
2023/07/14 04:36:34;;;;;;;4.88;3.10;;;;;21.70;101499.00;;;;5086161;28;20233;-79
2023/07/14 04:39:05;;;;;;;3.15;2.75;;;;;21.70;101494.00;;;;5085626;28;20688;-80
2023/07/14 04:41:33;;;;;;;4.07;3.15;;;;;21.80;101498.00;;;;5092869;28;20748;-80
2023/07/14 04:44:06;;;;;;;2.50;2.28;;;;;21.70;101500.00;;;;5072862;28;20194;-81
2023/07/14 04:46:33;;;;;;;2.47;2.28;;;;;21.80;101498.00;;;;5085182;28;20198;-80
2023/07/14 04:49:02;;;;;;;4.28;3.15;;;;;21.80;101487.00;;;;5081868;28;20191;-80
2023/07/14 04:51:29;;;;;;;2.83;2.50;;;;;21.80;101487.00;;;;5084575;28;20213;-80
2023/07/14 04:53:57;;;;;;;4.03;2.50;;;;;21.80;101479.00;;;;5086721;28;20205;-80
2023/07/14 04:56:24;;;;;;;3.20;2.42;;;;;21.80;101483.00;;;;5090097;28;20229;-80
2023/07/14 04:58:52;;;;;;;3.40;2.28;;;;;21.90;101489.00;;;;5096040;28;20199;-79
2023/07/14 05:01:19;;;;;;;4.47;2.38;;;;;21.90;101491.00;;;;5090337;28;20208;-79
2023/07/14 05:03:46;;;;;;;5.90;2.95;;;;;21.90;101483.00;;;;5088172;28;20198;-79
2023/07/14 05:06:15;;;;;;;3.13;2.33;;;;;21.90;101484.00;;;;5091441;28;20201;-79
2023/07/14 05:08:43;;;;;;;2.53;2.17;;;;;22.00;101480.00;;;;5086292;28;20210;-81
2023/07/14 05:11:10;;;;;;;4.45;2.33;;;;;22.00;101488.00;;;;5091165;28;20346;-81
2023/07/14 05:13:38;;;;;;;5.95;2.22;;;;;22.00;101487.00;;;;5090292;28;20199;-81
2023/07/14 05:16:05;;;;;;;3.92;2.65;;;;;22.10;101489.00;;;;5097323;28;20579;-81
2023/07/14 05:18:33;;;;;;;6.13;2.60;;;;;22.10;101487.00;;;;5091393;28;20198;-81
2023/07/14 05:21:03;;;;;;;3.72;2.17;;;;;22.20;101484.00;;;;5090512;28;20209;-80
2023/07/14 05:23:32;;;;;;;3.03;2.05;;;;;22.20;101481.00;;;;5090335;28;20305;-81
2023/07/14 05:25:59;;;;;;;4.10;2.15;;;;;22.20;101482.00;;;;5081039;28;20198;-81
2023/07/14 05:28:27;;;;;;;4.22;2.22;;;;;22.30;101478.00;;;;5079970;28;20205;-82
2023/07/14 05:30:54;;;;;;;4.97;2.70;;;;;22.30;101480.00;;;;5079788;28;20198;-82
2023/07/14 05:33:22;;;;;;;4.20;2.80;;;;;22.40;101469.00;;;;5083591;28;20195;-81
2023/07/14 05:35:49;;;;;;;7.28;2.15;;;;;22.40;101478.00;;;;5089644;28;20416;-81
2023/07/14 05:38:17;;;;;;;3.38;2.10;;;;;22.50;101476.00;;;;5083256;28;20225;-81
2023/07/14 05:40:54;;;;;;;7.25;2.75;;;;;22.50;101480.00;;;;5090147;28;20272;-80
2023/07/14 05:43:21;;;;;;;5.53;2.65;;;;;22.60;101477.00;;;;5087419;28;20201;-81
2023/07/14 05:45:49;;;;;;;5.00;2.17;;;;;22.60;101472.00;;;;5079775;28;20191;-81
2023/07/14 05:48:18;;;;;;;3.53;2.15;;;;;22.60;101466.00;;;;5091429;28;20277;-81
2023/07/14 05:50:45;;;;;;;3.78;2.60;;;;;22.70;101465.00;;;;5087247;28;20209;-81
2023/07/14 05:53:14;;;;;;;5.80;3.03;;;;;22.70;101459.00;;;;5076718;28;20203;-80
2023/07/14 05:55:42;;;;;;;4.47;2.78;;;;;22.80;101465.00;;;;5086790;28;20206;-81
2023/07/14 05:58:10;;;;;;;4.90;2.70;;;;;22.80;101469.00;;;;5087906;28;20233;-80
2023/07/14 06:00:39;;;;;;;4.95;3.30;;;;;22.80;101458.00;;;;5084819;28;20194;-80
2023/07/14 06:03:07;;;;;;;2.63;2.17;;;;;22.90;101461.00;;;;5085693;28;20564;-81
2023/07/14 06:05:35;;;;;;;6.70;3.00;;;;;23.00;101457.00;;;;5087576;28;20271;-80
2023/07/14 06:08:03;;;;;;;3.88;2.45;;;;;23.00;101459.00;;;;5074709;28;20659;-79
2023/07/14 06:10:30;;;;;;;3.78;2.72;;;;;23.10;101456.00;;;;5088040;28;20228;-79
2023/07/14 06:12:58;;;;;;;5.18;2.92;;;;;23.10;101456.00;;;;5089732;28;20678;-79
2023/07/14 06:15:27;;;;;;;4.68;2.50;;;;;23.10;101466.00;;;;5086891;28;20209;-79
2023/07/14 06:17:55;;;;;;;4.88;2.70;;;;;23.20;101456.00;;;;5086062;28;20225;-79
2023/07/14 06:20:23;;;;;;;4.68;2.75;;;;;23.30;101455.00;;;;5089618;28;20222;-79
2023/07/14 06:22:51;;;;;;;7.63;2.78;;;;;23.30;101460.00;;;;5094148;28;20270;-79
2023/07/14 06:25:18;;;;;;;6.50;2.95;;;;;23.30;101446.00;;;;5086313;28;20267;-79
2023/07/14 06:27:46;;;;;;;5.05;2.53;;;;;23.30;101444.00;;;;5086351;28;20251;-79
2023/07/14 06:30:14;;;;;;;5.40;2.65;;;;;23.40;101447.00;;;;5088567;28;20664;-80
2023/07/14 06:32:42;;;;;;;3.78;2.42;;;;;23.40;101448.00;;;;5088532;28;20566;-80
2023/07/14 06:35:11;;;;;;;2.58;2.13;;;;;23.50;101446.00;;;;5089207;28;20233;-79
2023/07/14 06:37:38;;;;;;;4.35;2.25;;;;;23.50;101444.00;;;;5086586;28;20787;-80
2023/07/14 06:40:08;;;;;;;7.25;2.65;;;;;23.60;101447.00;;;;5089530;28;20199;-80
2023/07/14 06:42:35;;;;;;;4.90;2.50;;;;;23.60;101447.00;;;;5083295;28;20198;-80
2023/07/14 06:45:03;;;;;;;4.30;2.38;;;;;23.70;101447.00;;;;5071735;28;20209;-77
2023/07/14 06:47:32;;;;;;;4.00;2.60;;;;;23.70;101453.00;;;;5088269;28;20226;-79
2023/07/14 06:50:01;;;;;;;4.25;2.10;;;;;23.70;101450.00;;;;5084151;28;20199;-78
2023/07/14 06:52:28;;;;;;;5.25;2.65;;;;;23.80;101448.00;;;;5088924;28;20664;-79
2023/07/14 06:54:57;;;;;;;4.05;2.40;;;;;23.80;101449.00;;;;5089548;28;20638;-79
2023/07/14 06:57:24;;;;;;;5.68;3.17;;;;;23.80;101443.00;;;;5089497;28;20222;-79
2023/07/14 06:59:52;;;;;;;3.97;2.30;;;;;23.90;101452.00;;;;5081445;28;20689;-79
2023/07/14 07:02:20;;;;;;;3.60;2.35;;;;;23.90;101452.00;;;;5089374;28;20217;-80
2023/07/14 07:04:47;;;;;;;3.63;2.38;;;;;23.90;101450.00;;;;5089639;28;20194;-79
2023/07/14 07:07:16;;;;;;;3.60;2.40;;;;;24.00;101446.00;;;;5084923;28;20195;-79
2023/07/14 07:09:43;;;;;;;4.65;2.60;;;;;24.00;101436.00;;;;5087095;28;20205;-81
2023/07/14 07:12:11;;;;;;;4.78;2.67;;;;;24.00;101438.00;;;;5086791;28;20741;-80
2023/07/14 07:14:38;;;;;;;6.25;3.22;;;;;24.10;101443.00;;;;5080400;28;20203;-80
2023/07/14 07:17:08;;;;;;;5.07;3.20;;;;;24.10;101436.00;;;;5088903;28;20222;-79
2023/07/14 07:19:35;;;;;;;4.20;2.78;;;;;24.20;101437.00;;;;5088129;28;20230;-79
2023/07/14 07:22:02;;;;;;;4.55;2.60;;;;;24.20;101437.00;;;;5083243;28;20191;-80
2023/07/14 07:24:31;;;;;;;5.15;2.97;;;;;24.20;101432.00;;;;5085268;28;20579;-78
2023/07/14 07:26:59;;;;;;;7.25;3.50;;;;;24.30;101436.00;;;;5080235;28;20660;-78
2023/07/14 07:29:26;;;;;;;10.57;3.15;;;;;24.30;101435.00;;;;5085236;28;20202;-77
2023/07/14 07:31:54;;;;;;;4.32;2.60;;;;;24.30;101431.00;;;;5084049;28;20198;-79
2023/07/14 07:34:21;;;;;;;5.10;2.65;;;;;24.40;101429.00;;;;5084029;28;20226;-79
2023/07/14 07:36:48;;;;;;;6.68;3.17;;;;;24.40;101429.00;;;;5084028;28;20202;-79
2023/07/14 07:39:16;;;;;;;4.90;3.25;;;;;24.50;101426.00;;;;5083987;28;20203;-78
2023/07/14 07:41:45;;;;;;;4.95;2.78;;;;;24.60;101427.00;;;;5083774;28;20671;-78
2023/07/14 07:44:12;;;;;;;4.07;3.00;;;;;24.70;101422.00;;;;5071624;28;20202;-79
2023/07/14 07:46:39;;;;;;;5.93;3.10;;;;;24.80;101419.00;;;;5067765;28;20232;-78
2023/07/14 07:49:07;;;;;;;4.15;2.78;;;;;24.80;101403.00;;;;5074661;28;20203;-77
2023/07/14 07:51:34;;;;;;;6.57;3.80;;;;;24.90;101398.00;;;;5083490;28;20285;-77
2023/07/14 07:54:01;;;;;;;5.20;3.38;;;;;25.00;101396.00;;;;5083452;28;20194;-78
2023/07/14 07:56:29;;;;;;;4.60;3.20;;;;;25.00;101407.00;;;;5086952;28;20190;-76
2023/07/14 07:58:57;;;;;;;5.75;3.30;;;;;25.00;101405.00;;;;5087027;28;20675;-77
2023/07/14 08:01:26;;;;;;;4.55;2.85;;;;;25.10;101410.00;;;;5081513;28;20202;-79
2023/07/14 08:03:53;;;;;;;5.10;3.15;;;;;25.20;101410.00;;;;5082621;28;20187;-79
2023/07/14 08:06:24;;;;;;;5.00;3.67;;;;;25.30;101414.00;;;;5078360;28;20210;-78
2023/07/14 08:08:52;;;;;;;6.07;3.35;;;;;25.30;101409.00;;;;5087368;28;20210;-79
2023/07/14 08:11:19;;;;;;;5.50;2.60;;;;;25.30;101411.00;;;;5084456;28;20264;-79
2023/07/14 08:13:46;;;;;;;3.70;2.58;;;;;25.40;101406.00;;;;5085973;28;20198;-79
2023/07/14 08:16:15;;;;;;;6.95;4.00;;;;;25.50;101407.00;;;;5084612;28;20575;-79
2023/07/14 08:18:42;;;;;;;6.63;4.35;;;;;25.50;101405.00;;;;5083432;28;20234;-78
2023/07/14 08:21:09;;;;;;;6.25;2.85;;;;;25.60;101400.00;;;;5084269;28;20187;-79
2023/07/14 08:23:40;;;;;;;7.88;3.55;;;;;25.70;101401.00;;;;5087047;28;20206;-78
2023/07/14 08:26:08;;;;;;;6.18;3.58;;;;;25.70;101408.00;;;;5082506;28;20198;-79
2023/07/14 08:28:36;;;;;;;3.65;3.20;;;;;25.80;101403.00;;;;5085183;28;20656;-80
2023/07/14 08:31:06;;;;;;;4.57;3.17;;;;;25.90;101404.00;;;;5082182;28;20190;-77
2023/07/14 08:33:36;;;;;;;3.78;2.78;;;;;25.90;101401.00;;;;5083056;28;20223;-78
2023/07/14 08:36:04;;;;;;;6.35;3.22;;;;;26.00;101403.00;;;;5067857;28;20199;-78
2023/07/14 08:38:34;;;;;;;6.43;3.08;;;;;26.10;101410.00;;;;5073149;28;20229;-77
2023/07/14 08:41:09;;;;;;;6.38;2.75;;;;;26.10;101408.00;;;;5084824;28;20210;-77
2023/07/14 08:43:49;;;;;;;5.93;2.58;;;;;26.10;101416.00;;;;5085107;28;20189;-78
2023/07/14 08:46:27;;;;;;;3.67;2.70;;;;;26.10;101401.00;;;;5083526;28;20730;-78
2023/07/14 08:49:04;;;;;;;4.30;2.83;;;;;26.10;101399.00;;;;5081855;28;20221;-78
2023/07/14 08:51:35;;;;;;;4.68;2.70;;;;;26.10;101401.00;;;;5079060;28;20201;-78
2023/07/14 08:54:13;;;;;;;4.85;2.83;;;;;26.20;101400.00;;;;5076091;28;20878;-80
2023/07/14 08:56:42;;;;;;;6.65;2.75;;;;;26.20;101399.00;;;;5084661;28;20200;-79
2023/07/14 08:59:18;;;;;;;5.32;2.35;;;;;26.10;101413.00;;;;5087664;28;20233;-78
2023/07/14 09:01:51;;;;;;;3.53;2.75;;;;;26.20;101414.00;;;;5081823;28;20189;-80
2023/07/14 09:04:24;;;;;;;4.18;2.88;;;;;26.20;101412.00;;;;5079132;28;20191;-78
2023/07/14 09:06:51;;;;;;;3.58;2.78;;;;;26.20;101403.00;;;;5076117;28;20191;-79
2023/07/14 09:09:22;;;;;;;3.80;2.67;;;;;26.30;101399.00;;;;5080063;28;20199;-79
2023/07/14 09:12:02;;;;;;;4.00;2.63;;;;;26.20;101400.00;;;;5080551;28;20277;-79
2023/07/14 09:14:45;;;;;;;5.50;2.30;;;;;26.30;101401.00;;;;5067250;28;20199;-77
2023/07/14 09:17:21;;;;;;;6.45;2.42;;;;;26.30;101396.00;;;;5084709;28;20198;-77
2023/07/14 09:20:12;;;;;;;3.78;2.15;;;;;26.30;101394.00;;;;5075064;28;20624;-79
2023/07/14 09:22:49;;;;;;;4.72;2.67;;;;;26.40;101394.00;;;;5069849;28;20198;-78
2023/07/14 09:25:24;;;;;;;3.35;2.30;;;;;26.50;101395.00;;;;5076189;28;20672;-77
2023/07/14 09:27:54;;;;;;;5.40;2.63;;;;;26.60;101402.00;;;;5083287;28;20198;-76
2023/07/14 09:30:26;;;;;;;6.45;2.30;;;;;26.60;101398.00;;;;5095206;28;20202;-79
2023/07/14 09:32:59;;;;;;;3.70;2.50;;;;;26.60;101380.00;;;;5108019;28;20210;-77
2023/07/14 09:35:29;;;;;;;4.18;2.20;;;;;26.70;101387.00;;;;5095818;28;20233;-77
2023/07/14 09:38:06;;;;;;;5.85;2.67;;;;;26.80;101375.00;;;;5084109;28;20701;-78
2023/07/14 09:40:35;;;;;;;3.88;2.58;;;;;26.90;101378.00;;;;5087366;28;20250;-76
2023/07/14 09:43:04;;;;;;;3.58;2.55;;;;;27.00;101389.00;;;;5087992;28;20194;-77
2023/07/14 09:45:33;;;;;;;5.65;2.80;;;;;27.00;101385.00;;;;5088352;28;20198;-78
2023/07/14 09:48:06;;;;;;;4.40;2.47;;;;;27.00;101389.00;;;;5087248;28;20209;-78
2023/07/14 09:50:38;;;;;;;2.75;2.10;;;;;27.10;101380.00;;;;5084259;28;20643;-78
2023/07/14 09:53:07;;;;;;;3.50;2.63;;;;;27.10;101377.00;;;;5083692;28;20253;-77
2023/07/14 09:55:48;;;;;;;3.13;2.35;;;;;27.00;101372.00;;;;5074124;28;20194;-77
2023/07/14 09:58:17;;;;;;;3.95;2.20;;;;;27.20;101375.00;;;;5090188;28;20569;-77
2023/07/14 10:00:48;;;;;;;2.90;1.90;;;;;27.20;101377.00;;;;5090836;28;20201;-78
2023/07/14 10:03:16;;;;;;;2.53;2.00;;;;;27.30;101376.00;;;;5093005;28;20205;-77
2023/07/14 10:05:53;;;;;;;2.35;1.73;;;;;27.20;101371.00;;;;5090826;27;20226;-77
2023/07/14 10:08:27;;;;;;;3.70;2.25;;;;;27.30;101365.00;;;;5086334;28;20206;-77
2023/07/14 10:10:57;;;;;;;2.97;1.98;;;;;27.30;101368.00;;;;5085963;28;20561;-77
2023/07/14 10:13:31;;;;;;;3.50;2.17;;;;;27.30;101349.00;;;;5088594;28;20206;-77
2023/07/14 10:16:05;;;;;;;4.22;2.38;;;;;27.30;101357.00;;;;5089497;28;20285;-77
2023/07/14 10:18:38;;;;;;;2.20;1.92;;;;;27.40;101357.00;;;;5088772;28;20223;-77
2023/07/14 10:21:14;;;;;;;4.25;2.65;;;;;27.40;101340.00;;;;5097046;28;20224;-77
2023/07/14 10:23:56;;;;;;;4.05;2.45;;;;;27.40;101342.00;;;;5081345;28;20191;-78
2023/07/14 10:26:25;;;;;;;4.75;2.50;;;;;27.40;101347.00;;;;5087164;28;20198;-77
2023/07/14 10:28:52;;;;;;;3.00;2.33;;;;;27.40;101345.00;;;;5089054;28;20202;-76
2023/07/14 10:31:27;;;;;;;4.15;1.73;;;;;27.40;101339.00;;;;5087330;28;20205;-77
2023/07/14 10:34:18;;;;;;;2.30;1.50;;;;;27.40;101335.00;;;;5087852;28;20274;-77
2023/07/14 10:36:48;;;;;;;3.85;2.05;;;;;27.40;101335.00;;;;5085262;28;20205;-77
2023/07/14 10:39:23;;;;;;;3.90;2.30;;;;;27.40;101336.00;;;;5082216;28;20230;-77
2023/07/14 10:41:52;;;;;;;6.22;2.50;;;;;27.40;101335.00;;;;5087700;28;21032;-77
2023/07/14 10:44:26;;;;;;;2.05;1.58;;;;;27.40;101337.00;;;;5086922;28;20202;-77
2023/07/14 10:46:59;;;;;;;2.83;2.03;;;;;27.30;101331.00;;;;5089230;28;20202;-76
2023/07/14 10:49:32;;;;;;;3.50;2.20;;;;;27.30;101323.00;;;;5084652;28;20199;-76
2023/07/14 10:52:05;;;;;;;3.15;1.65;;;;;27.30;101323.00;;;;5069582;28;20561;-77
2023/07/14 10:54:44;;;;;;;2.10;1.58;;;;;27.30;101326.00;;;;5083846;28;20202;-77
2023/07/14 10:57:24;;;;;;;4.30;1.92;;;;;27.30;101319.00;;;;5088102;28;20209;-77
2023/07/14 10:59:57;;;;;;;2.95;1.92;;;;;27.40;101327.00;;;;5089352;28;20229;-77
2023/07/14 11:02:29;;;;;;;1.95;1.58;;;;;27.40;101327.00;;;;5089374;28;20201;-77
2023/07/14 11:05:03;;;;;;;3.17;1.90;;;;;27.40;101326.00;;;;5089379;28;20199;-76
2023/07/14 11:07:35;;;;;;;2.72;1.88;;;;;27.30;101320.00;;;;5085442;28;20632;-77
2023/07/14 11:10:05;;;;;;;6.28;1.75;;;;;27.30;101311.00;;;;5087788;28;20194;-76
2023/07/14 11:12:38;;;;;;;2.78;2.13;;;;;27.30;101314.00;;;;5089341;28;20202;-78
2023/07/14 11:15:20;;;;;;;4.80;1.63;;;;;27.20;101306.00;;;;5086996;28;20202;-77
2023/07/14 11:17:56;;;;;;;4.30;1.77;;;;;27.20;101300.00;;;;5088468;28;20332;-77
2023/07/14 11:20:29;;;;;;;5.38;1.92;;;;;27.20;101292.00;;;;5088800;28;20220;-79
2023/07/14 11:23:14;;;;;;;3.05;1.85;;;;;27.20;101294.00;;;;5085358;28;20588;-77
2023/07/14 11:25:49;;;;;;;4.53;2.05;;;;;27.20;101291.00;;;;5068952;28;20191;-77
2023/07/14 11:28:29;;;;;;;2.75;1.90;;;;;27.20;101292.00;;;;5071950;28;20202;-78
2023/07/14 11:31:01;;;;;;;3.45;2.50;;;;;27.30;101267.00;;;;5088634;28;20204;-78
2023/07/14 11:33:38;;;;;;;2.38;1.75;;;;;27.30;101273.00;;;;5087478;28;20244;-77
2023/07/14 11:36:12;;;;;;;2.83;1.60;;;;;27.40;101272.00;;;;5068611;28;20668;-77
2023/07/14 11:38:46;;;;;;;3.03;2.13;;;;;27.40;101265.00;;;;5067942;28;20226;-77
2023/07/14 11:41:16;;;;;;;2.50;1.80;;;;;27.50;101260.00;;;;5066824;28;20287;-76
2023/07/14 11:43:43;;;;;;;3.25;1.85;;;;;27.50;101263.00;;;;5076790;28;20198;-77
2023/07/14 11:46:17;;;;;;;3.72;2.05;;;;;27.50;101249.00;;;;5088377;28;20198;-79
2023/07/14 11:49:00;;;;;;;5.40;1.80;;;;;27.50;101247.00;;;;5086687;28;20226;-78
2023/07/14 11:51:47;;;;;;;3.58;1.80;;;;;27.60;101244.00;;;;5067960;28;20673;-78
2023/07/14 11:54:19;;;;;;;3.30;1.60;;;;;27.70;101242.00;;;;5079213;28;20252;-77
2023/07/14 11:57:01;;;;;;;3.20;1.95;;;;;27.80;101228.00;;;;5087960;28;20205;-79
2023/07/14 11:59:30;;;;;;;2.60;1.77;;;;;27.90;101230.00;;;;5087964;28;20233;-79
2023/07/14 12:02:26;;;;;;;3.70;2.67;;;;;27.90;101237.00;;;;5086952;28;20194;-80
2023/07/14 12:05:18;;;;;;;2.90;2.10;;;;;28.10;101233.00;;;;5079503;28;20201;-80
2023/07/14 12:08:24;;;;;;;2.95;2.00;;;;;28.10;101231.00;;;;5087993;28;20647;-78
2023/07/14 12:10:58;;;;;;;2.53;1.42;;;;;28.30;101232.00;;;;5086609;28;20202;-77
2023/07/14 12:13:34;;;;;;;3.10;1.83;;;;;28.30;101225.00;;;;5084623;28;20201;-78
2023/07/14 12:16:18;;;;;;;2.80;1.58;;;;;28.40;101217.00;;;;5080206;28;20570;-78
2023/07/14 12:19:03;;;;;;;1.70;1.35;;;;;28.50;101205.00;;;;5086579;28;20679;-79
2023/07/14 12:21:43;;;;;;;1.10;1.00;;;;;28.60;101206.00;;;;5084565;28;20289;-78
2023/07/14 12:24:16;;;;;;;3.08;1.35;;;;;28.70;101204.00;;;;5086425;28;20205;-79
2023/07/14 12:26:51;;;;;;;3.25;1.60;;;;;28.80;101213.00;;;;5084444;28;20214;-79